sensor_id;sensor_type;location;lat;lon;timestamp;pressure;altitude;pressure_sealevel;temperature;humidity
77871;BME280;67067;46.850;7.578;2023-01-30T00:00:43;96077.69;;;-5.17;50.13
77871;BME280;67067;46.850;7.578;2023-01-30T00:01:44;96078.38;;;-5.15;50.06
77871;BME280;67067;46.850;7.578;2023-01-30T00:02:45;96076.63;;;-5.14;49.85
77871;BME280;67067;46.850;7.578;2023-01-30T00:03:47;96077.56;;;-5.15;49.85
77871;BME280;67067;46.850;7.578;2023-01-30T00:04:48;96074.81;;;-5.24;49.78
77871;BME280;67067;46.850;7.578;2023-01-30T00:05:49;96085.66;;;-5.30;49.99
77871;BME280;67067;46.850;7.578;2023-01-30T00:06:50;96077.13;;;-5.30;49.57
77871;BME280;67067;46.850;7.578;2023-01-30T00:07:50;96083.22;;;-5.31;49.47
77871;BME280;67067;46.850;7.578;2023-01-30T00:08:51;96087.56;;;-5.32;49.63
77871;BME280;67067;46.850;7.578;2023-01-30T00:09:56;96086.59;;;-5.31;49.44
77871;BME280;67067;46.850;7.578;2023-01-30T00:11:05;96091.78;;;-5.31;49.59
77871;BME280;67067;46.850;7.578;2023-01-30T00:12:06;96095.03;;;-5.29;49.67
77871;BME280;67067;46.850;7.578;2023-01-30T00:13:07;96092.03;;;-5.34;49.48
77871;BME280;67067;46.850;7.578;2023-01-30T00:14:07;96092.72;;;-5.32;49.56
77871;BME280;67067;46.850;7.578;2023-01-30T00:15:08;96092.72;;;-5.32;49.79
77871;BME280;67067;46.850;7.578;2023-01-30T00:16:09;96089.06;;;-5.29;49.46
77871;BME280;67067;46.850;7.578;2023-01-30T00:17:10;96081.44;;;-5.31;49.57
77871;BME280;67067;46.850;7.578;2023-01-30T00:18:10;96081.44;;;-5.31;49.73
77871;BME280;67067;46.850;7.578;2023-01-30T00:19:13;96079.81;;;-5.32;49.48
77871;BME280;67067;46.850;7.578;2023-01-30T00:20:16;96078.19;;;-5.33;49.58
77871;BME280;67067;46.850;7.578;2023-01-30T00:21:21;96074.66;;;-5.32;49.70
77871;BME280;67067;46.850;7.578;2023-01-30T00:22:22;96070.84;;;-5.28;49.59
77871;BME280;67067;46.850;7.578;2023-01-30T00:23:26;96078.88;;;-5.31;49.74
77871;BME280;67067;46.850;7.578;2023-01-30T00:24:27;96075.47;;;-5.31;49.54
77871;BME280;67067;46.850;7.578;2023-01-30T00:25:27;96065.97;;;-5.31;49.73
77871;BME280;67067;46.850;7.578;2023-01-30T00:26:31;96069.38;;;-5.30;49.71
77871;BME280;67067;46.850;7.578;2023-01-30T00:27:31;96074.53;;;-5.30;49.51
77871;BME280;67067;46.850;7.578;2023-01-30T00:28:32;96069.47;;;-5.32;49.66
77871;BME280;67067;46.850;7.578;2023-01-30T00:29:37;96067.59;;;-5.30;49.70
77871;BME280;67067;46.850;7.578;2023-01-30T00:30:37;96076.97;;;-5.29;49.64
77871;BME280;67067;46.850;7.578;2023-01-30T00:31:38;96076.16;;;-5.29;49.72
77871;BME280;67067;46.850;7.578;2023-01-30T00:32:38;96078.75;;;-5.29;49.71
77871;BME280;67067;46.850;7.578;2023-01-30T00:33:39;96074.13;;;-5.26;49.43
77871;BME280;67067;46.850;7.578;2023-01-30T00:34:39;96072.50;;;-5.27;49.49
77871;BME280;67067;46.850;7.578;2023-01-30T00:35:43;96073.59;;;-5.29;49.32
77871;BME280;67067;46.850;7.578;2023-01-30T00:36:43;96064.06;;;-5.29;49.36
77871;BME280;67067;46.850;7.578;2023-01-30T00:37:44;96071.13;;;-5.31;49.46
77871;BME280;67067;46.850;7.578;2023-01-30T00:38:48;96073.16;;;-5.35;49.53
77871;BME280;67067;46.850;7.578;2023-01-30T00:39:50;96071.88;;;-5.50;49.61
77871;BME280;67067;46.850;7.578;2023-01-30T00:40:50;96067.00;;;-5.43;49.48
77871;BME280;67067;46.850;7.578;2023-01-30T00:41:53;96073.78;;;-5.42;49.36
77871;BME280;67067;46.850;7.578;2023-01-30T00:43:18;96072.69;;;-5.50;49.56
77871;BME280;67067;46.850;7.578;2023-01-30T00:44:40;96079.06;;;-5.54;49.80
77871;BME280;67067;46.850;7.578;2023-01-30T00:46:02;96078.91;;;-5.52;49.75
77871;BME280;67067;46.850;7.578;2023-01-30T00:47:22;96080.81;;;-5.54;49.74
77871;BME280;67067;46.850;7.578;2023-01-30T00:48:27;96085.16;;;-5.55;49.85
77871;BME280;67067;46.850;7.578;2023-01-30T00:49:27;96081.63;;;-5.54;49.83
77871;BME280;67067;46.850;7.578;2023-01-30T00:50:28;96084.22;;;-5.54;49.78
77871;BME280;67067;46.850;7.578;2023-01-30T00:51:41;96087.47;;;-5.52;49.85
77871;BME280;67067;46.850;7.578;2023-01-30T00:52:42;96086.53;;;-5.51;50.05
77871;BME280;67067;46.850;7.578;2023-01-30T00:53:42;96084.66;;;-5.49;50.13
77871;BME280;67067;46.850;7.578;2023-01-30T00:54:45;96089.00;;;-5.49;49.85
77871;BME280;67067;46.850;7.578;2023-01-30T00:55:50;96079.47;;;-5.49;49.89
77871;BME280;67067;46.850;7.578;2023-01-30T00:56:51;96087.09;;;-5.47;49.82
77871;BME280;67067;46.850;7.578;2023-01-30T00:57:51;96089.69;;;-5.47;50.08
77871;BME280;67067;46.850;7.578;2023-01-30T00:58:52;96085.47;;;-5.48;49.91
77871;BME280;67067;46.850;7.578;2023-01-30T00:59:52;96098.38;;;-5.48;49.92
77871;BME280;67067;46.850;7.578;2023-01-30T01:00:53;96089.53;;;-5.45;49.85
77871;BME280;67067;46.850;7.578;2023-01-30T01:01:56;96093.75;;;-5.44;49.88
77871;BME280;67067;46.850;7.578;2023-01-30T01:02:57;96094.69;;;-5.45;50.01
77871;BME280;67067;46.850;7.578;2023-01-30T01:03:58;96091.19;;;-5.44;50.01
77871;BME280;67067;46.850;7.578;2023-01-30T01:04:58;96087.09;;;-5.47;49.89
77871;BME280;67067;46.850;7.578;2023-01-30T01:06:00;96087.91;;;-5.46;49.93
77871;BME280;67067;46.850;7.578;2023-01-30T01:07:03;96084.53;;;-5.47;50.08
77871;BME280;67067;46.850;7.578;2023-01-30T01:08:04;96086.53;;;-5.51;50.15
77871;BME280;67067;46.850;7.578;2023-01-30T01:09:05;96088.06;;;-5.48;49.96
77871;BME280;67067;46.850;7.578;2023-01-30T01:10:06;96079.47;;;-5.49;49.87
77871;BME280;67067;46.850;7.578;2023-01-30T01:11:07;96078.53;;;-5.47;50.05
77871;BME280;67067;46.850;7.578;2023-01-30T01:12:08;96076.78;;;-5.47;49.90
77871;BME280;67067;46.850;7.578;2023-01-30T01:13:08;96071.88;;;-5.50;49.85
77871;BME280;67067;46.850;7.578;2023-01-30T01:14:09;96073.25;;;-5.46;49.93
77871;BME280;67067;46.850;7.578;2023-01-30T01:15:12;96073.38;;;-5.47;49.70
77871;BME280;67067;46.850;7.578;2023-01-30T01:16:13;96073.91;;;-5.54;49.70
77871;BME280;67067;46.850;7.578;2023-01-30T01:17:14;96074.25;;;-5.58;50.00
77871;BME280;67067;46.850;7.578;2023-01-30T01:18:14;96075.63;;;-5.64;49.72
77871;BME280;67067;46.850;7.578;2023-01-30T01:19:17;96073.41;;;-5.69;49.77
77871;BME280;67067;46.850;7.578;2023-01-30T01:20:18;96074.75;;;-5.74;49.75
77871;BME280;67067;46.850;7.578;2023-01-30T01:21:20;96077.44;;;-5.76;49.84
77871;BME280;67067;46.850;7.578;2023-01-30T01:22:23;96074.19;;;-5.78;49.74
77871;BME280;67067;46.850;7.578;2023-01-30T01:23:26;96071.16;;;-5.83;49.72
77871;BME280;67067;46.850;7.578;2023-01-30T01:24:29;96073.44;;;-5.90;49.77
77871;BME280;67067;46.850;7.578;2023-01-30T01:25:29;96065.94;;;-5.93;49.44
77871;BME280;67067;46.850;7.578;2023-01-30T01:26:30;96069.63;;;-5.96;49.63
77871;BME280;67067;46.850;7.578;2023-01-30T01:27:30;96065.41;;;-5.97;49.77
77871;BME280;67067;46.850;7.578;2023-01-30T01:28:31;96064.56;;;-5.97;49.72
77871;BME280;67067;46.850;7.578;2023-01-30T01:29:31;96056.28;;;-6.01;49.81
77871;BME280;67067;46.850;7.578;2023-01-30T01:30:32;96050.97;;;-5.99;49.87
77871;BME280;67067;46.850;7.578;2023-01-30T01:31:32;96058.97;;;-6.02;49.95
77871;BME280;67067;46.850;7.578;2023-01-30T01:32:33;96054.75;;;-6.03;49.89
77871;BME280;67067;46.850;7.578;2023-01-30T01:33:35;96056.53;;;-6.04;49.88
77871;BME280;67067;46.850;7.578;2023-01-30T01:34:35;96056.66;;;-6.05;49.80
77871;BME280;67067;46.850;7.578;2023-01-30T01:35:40;96066.97;;;-6.05;49.90
77871;BME280;67067;46.850;7.578;2023-01-30T01:36:43;96065.31;;;-6.07;49.79
77871;BME280;67067;46.850;7.578;2023-01-30T01:37:43;96065.72;;;-6.11;49.95
77871;BME280;67067;46.850;7.578;2023-01-30T01:38:46;96072.75;;;-6.13;49.88
77871;BME280;67067;46.850;7.578;2023-01-30T01:39:47;96069.34;;;-6.14;49.77
77871;BME280;67067;46.850;7.578;2023-01-30T01:41:06;96070.31;;;-6.15;49.83
77871;BME280;67067;46.850;7.578;2023-01-30T01:42:08;96069.34;;;-6.14;49.79
77871;BME280;67067;46.850;7.578;2023-01-30T01:43:18;96074.66;;;-6.15;50.07
77871;BME280;67067;46.850;7.578;2023-01-30T01:44:22;96079.41;;;-6.11;50.18
77871;BME280;67067;46.850;7.578;2023-01-30T01:45:24;96068.84;;;-6.08;50.22
77871;BME280;67067;46.850;7.578;2023-01-30T01:46:28;96067.91;;;-6.07;50.36
77871;BME280;67067;46.850;7.578;2023-01-30T01:47:34;96068.59;;;-6.04;50.50
77871;BME280;67067;46.850;7.578;2023-01-30T01:48:43;96066.41;;;-6.09;50.37
77871;BME280;67067;46.850;7.578;2023-01-30T01:49:48;96069.53;;;-6.05;50.36
77871;BME280;67067;46.850;7.578;2023-01-30T01:51:04;96069.09;;;-6.11;50.55
77871;BME280;67067;46.850;7.578;2023-01-30T01:52:12;96065.84;;;-6.13;50.76
77871;BME280;67067;46.850;7.578;2023-01-30T01:53:19;96062.06;;;-6.09;50.43
77871;BME280;67067;46.850;7.578;2023-01-30T01:54:28;96065.59;;;-6.10;50.88
77871;BME280;67067;46.850;7.578;2023-01-30T01:55:32;96066.41;;;-6.09;51.01
77871;BME280;67067;46.850;7.578;2023-01-30T01:56:34;96065.84;;;-6.13;51.07
77871;BME280;67067;46.850;7.578;2023-01-30T01:57:50;96064.31;;;-6.37;51.77
77871;BME280;67067;46.850;7.578;2023-01-30T02:00:20;96059.56;;;-6.20;51.61
77871;BME280;67067;46.850;7.578;2023-01-30T02:01:21;96060.69;;;-6.13;51.30
77871;BME280;67067;46.850;7.578;2023-01-30T02:02:21;96066.41;;;-6.09;50.95
77871;BME280;67067;46.850;7.578;2023-01-30T02:03:26;96057.59;;;-6.07;50.80
77871;BME280;67067;46.850;7.578;2023-01-30T02:04:29;96059.91;;;-6.03;50.93
77871;BME280;67067;46.850;7.578;2023-01-30T02:05:51;96065.31;;;-6.07;50.95
77871;BME280;67067;46.850;7.578;2023-01-30T02:06:52;96063.84;;;-6.09;50.91
77871;BME280;67067;46.850;7.578;2023-01-30T02:09:04;96059.03;;;-6.14;50.78
77871;BME280;67067;46.850;7.578;2023-01-30T02:10:10;96056.63;;;-6.15;50.65
77871;BME280;67067;46.850;7.578;2023-01-30T02:11:16;96055.53;;;-6.13;50.61
77871;BME280;67067;46.850;7.578;2023-01-30T02:12:20;96055.53;;;-6.13;50.47
77871;BME280;67067;46.850;7.578;2023-01-30T02:13:21;96058.59;;;-6.19;50.55
77871;BME280;67067;46.850;7.578;2023-01-30T02:14:22;96060.25;;;-6.18;50.58
77871;BME280;67067;46.850;7.578;2023-01-30T02:15:24;96058.09;;;-6.13;50.47
77871;BME280;67067;46.850;7.578;2023-01-30T02:16:25;96057.66;;;-6.18;50.81
77871;BME280;67067;46.850;7.578;2023-01-30T02:17:25;96054.84;;;-6.15;50.72
77871;BME280;67067;46.850;7.578;2023-01-30T02:18:27;96052.69;;;-6.10;50.61
77871;BME280;67067;46.850;7.578;2023-01-30T02:19:51;96051.69;;;-6.18;50.76
77871;BME280;67067;46.850;7.578;2023-01-30T02:21:02;96052.00;;;-6.12;50.63
77871;BME280;67067;46.850;7.578;2023-01-30T02:22:21;96056.22;;;-6.11;50.48
77871;BME280;67067;46.850;7.578;2023-01-30T02:24:54;96060.44;;;-6.10;50.52
77871;BME280;67067;46.850;7.578;2023-01-30T02:29:01;96060.94;;;-6.16;50.85
77871;BME280;67067;46.850;7.578;2023-01-30T02:33:20;96068.66;;;-6.16;50.67
77871;BME280;67067;46.850;7.578;2023-01-30T02:42:37;96080.72;;;-5.95;50.82
77871;BME280;67067;46.850;7.578;2023-01-30T02:45:04;96085.53;;;-5.90;50.64
77871;BME280;67067;46.850;7.578;2023-01-30T02:46:19;96082.00;;;-5.89;50.96
77871;BME280;67067;46.850;7.578;2023-01-30T02:47:35;96088.41;;;-5.84;50.71
77871;BME280;67067;46.850;7.578;2023-01-30T02:48:41;96090.50;;;-5.78;50.66
77871;BME280;67067;46.850;7.578;2023-01-30T02:49:59;96092.13;;;-5.76;50.54
77871;BME280;67067;46.850;7.578;2023-01-30T02:51:13;96088.34;;;-5.72;50.34
77871;BME280;67067;46.850;7.578;2023-01-30T02:52:16;96093.94;;;-5.67;50.56
77871;BME280;67067;46.850;7.578;2023-01-30T02:53:17;96089.47;;;-5.65;50.50
77871;BME280;67067;46.850;7.578;2023-01-30T02:54:20;96085.78;;;-5.63;50.34
77871;BME280;67067;46.850;7.578;2023-01-30T02:55:25;96088.25;;;-5.61;50.59
77871;BME280;67067;46.850;7.578;2023-01-30T02:56:26;96091.53;;;-5.59;50.60
77871;BME280;67067;46.850;7.578;2023-01-30T02:57:29;96092.22;;;-5.57;50.42
77871;BME280;67067;46.850;7.578;2023-01-30T02:58:38;96088.69;;;-5.56;50.22
77871;BME280;67067;46.850;7.578;2023-01-30T02:59:44;96088.53;;;-5.54;50.15
77871;BME280;67067;46.850;7.578;2023-01-30T03:07:44;96105.53;;;-5.83;50.39
77871;BME280;67067;46.850;7.578;2023-01-30T03:09:06;96114.75;;;-5.80;50.40
77871;BME280;67067;46.850;7.578;2023-01-30T03:10:28;96123.59;;;-5.83;50.38
77871;BME280;67067;46.850;7.578;2023-01-30T03:13:09;96139.34;;;-5.76;50.44
77871;BME280;67067;46.850;7.578;2023-01-30T03:14:20;96142.75;;;-5.75;50.12
77871;BME280;67067;46.850;7.578;2023-01-30T03:16:34;96145.34;;;-5.75;50.31
77871;BME280;67067;46.850;7.578;2023-01-30T03:17:40;96151.88;;;-5.71;50.33
77871;BME280;67067;46.850;7.578;2023-01-30T03:18:45;96149.75;;;-5.66;50.42
77871;BME280;67067;46.850;7.578;2023-01-30T03:19:50;96154.66;;;-5.63;50.07
77871;BME280;67067;46.850;7.578;2023-01-30T03:20:52;96160.25;;;-5.58;50.27
77871;BME280;67067;46.850;7.578;2023-01-30T03:21:55;96165.25;;;-5.56;50.24
77871;BME280;67067;46.850;7.578;2023-01-30T03:22:56;96166.09;;;-5.56;50.27
77871;BME280;67067;46.850;7.578;2023-01-30T03:23:58;96158.69;;;-5.70;50.31
77871;BME280;67067;46.850;7.578;2023-01-30T03:25:01;96145.13;;;-5.63;50.31
77871;BME280;67067;46.850;7.578;2023-01-30T03:26:07;96151.94;;;-5.61;50.20
77871;BME280;67067;46.850;7.578;2023-01-30T03:27:14;96151.38;;;-5.65;50.57
77871;BME280;67067;46.850;7.578;2023-01-30T03:28:17;96152.19;;;-5.65;50.49
77871;BME280;67067;46.850;7.578;2023-01-30T03:29:19;96162.75;;;-5.68;50.62
77871;BME280;67067;46.850;7.578;2023-01-30T03:30:21;96159.38;;;-5.68;50.73
77871;BME280;67067;46.850;7.578;2023-01-30T03:31:23;96160.31;;;-5.69;50.60
77871;BME280;67067;46.850;7.578;2023-01-30T03:32:23;96150.69;;;-5.67;50.52
77871;BME280;67067;46.850;7.578;2023-01-30T03:33:24;96150.53;;;-5.66;50.67
77871;BME280;67067;46.850;7.578;2023-01-30T03:34:24;96158.44;;;-5.67;50.33
77871;BME280;67067;46.850;7.578;2023-01-30T03:35:25;96148.09;;;-5.67;50.19
77871;BME280;67067;46.850;7.578;2023-01-30T03:36:26;96146.59;;;-5.70;50.18
77871;BME280;67067;46.850;7.578;2023-01-30T03:37:30;96150.09;;;-5.71;50.10
77871;BME280;67067;46.850;7.578;2023-01-30T03:38:33;96155.41;;;-5.72;50.02
77871;BME280;67067;46.850;7.578;2023-01-30T03:39:34;96154.84;;;-5.76;49.91
77871;BME280;67067;46.850;7.578;2023-01-30T03:40:35;96161.53;;;-5.85;49.80
77871;BME280;67067;46.850;7.578;2023-01-30T03:41:37;96160.56;;;-5.94;49.80
77871;BME280;67067;46.850;7.578;2023-01-30T03:42:40;96162.59;;;-6.09;50.21
77871;BME280;67067;46.850;7.578;2023-01-30T03:43:42;96163.28;;;-6.07;49.95
77871;BME280;67067;46.850;7.578;2023-01-30T03:44:45;96169.16;;;-6.04;49.96
77871;BME280;67067;46.850;7.578;2023-01-30T03:45:49;96176.44;;;-6.10;50.24
77871;BME280;67067;46.850;7.578;2023-01-30T03:46:49;96181.34;;;-6.07;50.15
77871;BME280;67067;46.850;7.578;2023-01-30T03:47:51;96175.25;;;-6.05;50.10
77871;BME280;67067;46.850;7.578;2023-01-30T03:48:51;96181.34;;;-6.07;50.10
77871;BME280;67067;46.850;7.578;2023-01-30T03:49:52;96191.56;;;-6.05;50.24
77871;BME280;67067;46.850;7.578;2023-01-30T03:50:53;96188.97;;;-6.05;49.96
77871;BME280;67067;46.850;7.578;2023-01-30T03:51:53;96192.50;;;-6.06;49.89
77871;BME280;67067;46.850;7.578;2023-01-30T03:52:56;96184.88;;;-6.08;50.00
77871;BME280;67067;46.850;7.578;2023-01-30T03:53:57;96178.06;;;-6.09;49.98
77871;BME280;67067;46.850;7.578;2023-01-30T03:54:57;96169.41;;;-6.08;49.95
77871;BME280;67067;46.850;7.578;2023-01-30T03:55:58;96163.53;;;-6.10;50.06
77871;BME280;67067;46.850;7.578;2023-01-30T03:57:05;96163.44;;;-6.08;50.00
77871;BME280;67067;46.850;7.578;2023-01-30T03:58:05;96166.13;;;-6.10;50.21
77871;BME280;67067;46.850;7.578;2023-01-30T03:59:07;96171.28;;;-6.10;50.13
77871;BME280;67067;46.850;7.578;2023-01-30T04:00:19;96166.66;;;-6.27;50.20
77871;BME280;67067;46.850;7.578;2023-01-30T04:01:23;96159.38;;;-6.22;50.40
77871;BME280;67067;46.850;7.578;2023-01-30T04:02:23;96149.69;;;-6.30;50.54
77871;BME280;67067;46.850;7.578;2023-01-30T04:03:31;96136.53;;;-6.27;50.39
77871;BME280;67067;46.850;7.578;2023-01-30T04:04:33;96136.03;;;-6.21;50.56
77871;BME280;67067;46.850;7.578;2023-01-30T04:05:34;96138.63;;;-6.21;50.44
77871;BME280;67067;46.850;7.578;2023-01-30T04:06:38;96146.25;;;-6.19;50.56
77871;BME280;67067;46.850;7.578;2023-01-30T04:07:41;96150.47;;;-6.18;50.43
77871;BME280;67067;46.850;7.578;2023-01-30T04:08:43;96155.63;;;-6.18;50.42
77871;BME280;67067;46.850;7.578;2023-01-30T04:09:52;96149.63;;;-6.18;50.58
77871;BME280;67067;46.850;7.578;2023-01-30T04:10:54;96152.69;;;-6.13;50.43
77871;BME280;67067;46.850;7.578;2023-01-30T04:11:54;96157.44;;;-6.09;50.53
77871;BME280;67067;46.850;7.578;2023-01-30T04:12:56;96159.22;;;-6.09;50.41
77871;BME280;67067;46.850;7.578;2023-01-30T04:13:59;96163.53;;;-6.10;50.44
77871;BME280;67067;46.850;7.578;2023-01-30T04:15:02;96158.38;;;-6.10;50.44
77871;BME280;67067;46.850;7.578;2023-01-30T04:16:23;96149.72;;;-6.09;50.27
77871;BME280;67067;46.850;7.578;2023-01-30T04:17:43;96148.31;;;-6.13;50.34
77871;BME280;67067;46.850;7.578;2023-01-30T04:19:04;96148.13;;;-6.21;50.61
77871;BME280;67067;46.850;7.578;2023-01-30T04:20:07;96143.66;;;-6.19;50.26
77871;BME280;67067;46.850;7.578;2023-01-30T04:21:11;96150.22;;;-6.15;50.43
77871;BME280;67067;46.850;7.578;2023-01-30T04:22:13;96147.38;;;-6.12;50.28
77871;BME280;67067;46.850;7.578;2023-01-30T04:23:16;96160.28;;;-6.12;50.32
77871;BME280;67067;46.850;7.578;2023-01-30T04:24:17;96158.88;;;-6.16;50.30
77871;BME280;67067;46.850;7.578;2023-01-30T04:25:20;96156.75;;;-6.11;50.29
77871;BME280;67067;46.850;7.578;2023-01-30T04:26:20;96149.84;;;-6.10;50.20
77871;BME280;67067;46.850;7.578;2023-01-30T04:27:23;96147.97;;;-6.08;50.13
77871;BME280;67067;46.850;7.578;2023-01-30T04:28:50;96145.50;;;-6.10;50.25
77871;BME280;67067;46.850;7.578;2023-01-30T04:29:51;96145.16;;;-6.05;50.39
77871;BME280;67067;46.850;7.578;2023-01-30T04:30:52;96147.31;;;-6.00;50.31
77871;BME280;67067;46.850;7.578;2023-01-30T04:32:18;96138.66;;;-5.99;50.44
77871;BME280;67067;46.850;7.578;2023-01-30T04:33:21;96134.63;;;-6.13;50.73
77871;BME280;67067;46.850;7.578;2023-01-30T04:34:21;96118.00;;;-6.21;50.86
77871;BME280;67067;46.850;7.578;2023-01-30T04:35:26;96120.66;;;-6.11;50.50
77871;BME280;67067;46.850;7.578;2023-01-30T04:36:26;96123.69;;;-6.05;50.51
77871;BME280;67067;46.850;7.578;2023-01-30T04:37:29;96121.00;;;-6.04;50.65
77871;BME280;67067;46.850;7.578;2023-01-30T04:38:30;96124.13;;;-6.00;50.76
77871;BME280;67067;46.850;7.578;2023-01-30T04:39:31;96128.41;;;-6.11;50.71
77871;BME280;67067;46.850;7.578;2023-01-30T04:40:31;96129.97;;;-5.98;50.40
77871;BME280;67067;46.850;7.578;2023-01-30T04:41:34;96133.00;;;-5.93;50.38
77871;BME280;67067;46.850;7.578;2023-01-30T04:42:35;96131.09;;;-5.91;50.23
77871;BME280;67067;46.850;7.578;2023-01-30T04:43:56;96128.91;;;-5.96;50.38
77871;BME280;67067;46.850;7.578;2023-01-30T04:45:25;96119.56;;;-5.97;50.33
77871;BME280;67067;46.850;7.578;2023-01-30T04:46:26;96128.91;;;-5.96;50.30
77871;BME280;67067;46.850;7.578;2023-01-30T04:47:26;96129.47;;;-5.92;50.38
77871;BME280;67067;46.850;7.578;2023-01-30T04:48:27;96136.94;;;-5.89;50.21
77871;BME280;67067;46.850;7.578;2023-01-30T04:49:30;96140.38;;;-5.88;50.07
77871;BME280;67067;46.850;7.578;2023-01-30T04:50:33;96143.38;;;-5.83;50.16
77871;BME280;67067;46.850;7.578;2023-01-30T04:51:34;96137.41;;;-5.84;50.16
77871;BME280;67067;46.850;7.578;2023-01-30T04:52:34;96133.75;;;-5.81;49.92
77871;BME280;67067;46.850;7.578;2023-01-30T04:53:38;96138.66;;;-5.78;49.92
77871;BME280;67067;46.850;7.578;2023-01-30T04:54:38;96123.06;;;-5.76;49.88
77871;BME280;67067;46.850;7.578;2023-01-30T04:55:39;96122.63;;;-5.82;49.84
77871;BME280;67067;46.850;7.578;2023-01-30T04:56:39;96112.31;;;-5.82;50.04
77871;BME280;67067;46.850;7.578;2023-01-30T04:57:40;96108.09;;;-5.83;49.74
77871;BME280;67067;46.850;7.578;2023-01-30T04:58:41;96110.69;;;-5.83;49.63
77871;BME280;67067;46.850;7.578;2023-01-30T04:59:42;96104.00;;;-5.85;49.74
77871;BME280;67067;46.850;7.578;2023-01-30T05:00:48;96110.09;;;-5.86;49.83
77871;BME280;67067;46.850;7.578;2023-01-30T05:01:49;96103.69;;;-5.92;49.75
77871;BME280;67067;46.850;7.578;2023-01-30T05:02:50;96103.69;;;-5.92;49.83
77871;BME280;67067;46.850;7.578;2023-01-30T05:03:51;96103.69;;;-5.92;49.76
77871;BME280;67067;46.850;7.578;2023-01-30T05:04:52;96113.75;;;-5.89;49.69
77871;BME280;67067;46.850;7.578;2023-01-30T05:05:55;96108.84;;;-5.92;49.77
77871;BME280;67067;46.850;7.578;2023-01-30T05:06:55;96105.31;;;-5.91;49.91
77871;BME280;67067;46.850;7.578;2023-01-30T05:07:56;96101.34;;;-5.95;49.73
77871;BME280;67067;46.850;7.578;2023-01-30T05:08:57;96092.50;;;-6.02;49.99
77871;BME280;67067;46.850;7.578;2023-01-30T05:09:57;96085.94;;;-6.07;50.09
77871;BME280;67067;46.850;7.578;2023-01-30T05:11:04;96082.19;;;-6.02;50.07
77871;BME280;67067;46.850;7.578;2023-01-30T05:12:05;96072.00;;;-6.04;50.06
77871;BME280;67067;46.850;7.578;2023-01-30T05:13:07;96068.59;;;-6.04;50.18
77871;BME280;67067;46.850;7.578;2023-01-30T05:14:13;96056.41;;;-6.02;50.07
77871;BME280;67067;46.850;7.578;2023-01-30T05:15:16;96062.25;;;-6.00;49.86
77871;BME280;67067;46.850;7.578;2023-01-30T05:16:20;96067.53;;;-6.02;50.01
77871;BME280;67067;46.850;7.578;2023-01-30T05:17:21;96065.66;;;-6.00;49.94
77871;BME280;67067;46.850;7.578;2023-01-30T05:18:27;96068.09;;;-5.98;50.03
77871;BME280;67067;46.850;7.578;2023-01-30T05:19:27;96064.56;;;-5.97;49.92
77871;BME280;67067;46.850;7.578;2023-01-30T05:20:28;96056.84;;;-5.97;49.97
77871;BME280;67067;46.850;7.578;2023-01-30T05:21:28;96063.88;;;-5.99;50.01
77871;BME280;67067;46.850;7.578;2023-01-30T05:22:29;96064.56;;;-5.97;49.82
77871;BME280;67067;46.850;7.578;2023-01-30T05:23:31;96059.41;;;-5.97;49.98
77871;BME280;67067;46.850;7.578;2023-01-30T05:24:32;96055.44;;;-6.01;49.93
77871;BME280;67067;46.850;7.578;2023-01-30T05:25:32;96054.47;;;-6.10;50.11
77871;BME280;67067;46.850;7.578;2023-01-30T05:26:33;96049.34;;;-6.22;50.45
77871;BME280;67067;46.850;7.578;2023-01-30T05:27:33;96031.97;;;-6.29;50.49
77871;BME280;67067;46.850;7.578;2023-01-30T05:28:34;96036.53;;;-6.33;50.67
77871;BME280;67067;46.850;7.578;2023-01-30T05:29:35;96026.97;;;-6.42;51.06
77871;BME280;67067;46.850;7.578;2023-01-30T05:32:35;96019.50;;;-6.45;51.02
77871;BME280;67067;46.850;7.578;2023-01-30T05:33:36;96007.31;;;-6.43;50.83
77871;BME280;67067;46.850;7.578;2023-01-30T05:34:37;96017.63;;;-6.43;50.85
77871;BME280;67067;46.850;7.578;2023-01-30T05:35:37;96022.22;;;-6.47;50.91
77871;BME280;67067;46.850;7.578;2023-01-30T05:36:38;96023.59;;;-6.43;50.80
77871;BME280;67067;46.850;7.578;2023-01-30T05:37:38;96037.44;;;-6.44;50.85
77871;BME280;67067;46.850;7.578;2023-01-30T05:38:39;96038.47;;;-6.46;51.17
77871;BME280;67067;46.850;7.578;2023-01-30T05:39:42;96048.41;;;-6.42;51.23
77871;BME280;67067;46.850;7.578;2023-01-30T05:40:42;96053.38;;;-6.50;51.55
77871;BME280;67067;46.850;7.578;2023-01-30T05:41:43;96056.41;;;-6.45;51.40
77871;BME280;67067;46.850;7.578;2023-01-30T05:42:43;96053.81;;;-6.45;51.55
77871;BME280;67067;46.850;7.578;2023-01-30T05:43:48;96051.13;;;-6.43;51.50
77871;BME280;67067;46.850;7.578;2023-01-30T05:44:48;96049.81;;;-6.38;51.67
77871;BME280;67067;46.850;7.578;2023-01-30T05:45:52;96043.47;;;-6.33;51.45
77871;BME280;67067;46.850;7.578;2023-01-30T05:46:53;96044.16;;;-6.31;51.28
77871;BME280;67067;46.850;7.578;2023-01-30T05:47:56;96035.59;;;-6.32;51.01
77871;BME280;67067;46.850;7.578;2023-01-30T05:48:57;96037.22;;;-6.31;51.17
77871;BME280;67067;46.850;7.578;2023-01-30T05:49:57;96028.53;;;-6.30;50.87
77871;BME280;67067;46.850;7.578;2023-01-30T05:50:58;96025.88;;;-6.28;50.92
77871;BME280;67067;46.850;7.578;2023-01-30T05:51:59;96025.03;;;-6.29;50.99
77871;BME280;67067;46.850;7.578;2023-01-30T05:52:59;96030.19;;;-6.29;50.84
77871;BME280;67067;46.850;7.578;2023-01-30T05:54:00;96028.44;;;-6.28;50.88
77871;BME280;67067;46.850;7.578;2023-01-30T05:55:03;96033.44;;;-6.27;50.77
77871;BME280;67067;46.850;7.578;2023-01-30T05:56:04;96033.19;;;-6.24;50.74
77871;BME280;67067;46.850;7.578;2023-01-30T05:57:05;96044.34;;;-6.23;50.63
77871;BME280;67067;46.850;7.578;2023-01-30T05:58:05;96047.59;;;-6.21;50.82
77871;BME280;67067;46.850;7.578;2023-01-30T05:59:06;96050.88;;;-6.19;50.60
77871;BME280;67067;46.850;7.578;2023-01-30T06:00:09;96053.19;;;-6.16;50.67
77871;BME280;67067;46.850;7.578;2023-01-30T06:01:13;96054.03;;;-6.15;50.50
77871;BME280;67067;46.850;7.578;2023-01-30T06:02:13;96052.16;;;-6.13;50.41
77871;BME280;67067;46.850;7.578;2023-01-30T06:03:14;96051.06;;;-6.11;50.38
77871;BME280;67067;46.850;7.578;2023-01-30T06:04:14;96050.38;;;-6.13;50.37
77871;BME280;67067;46.850;7.578;2023-01-30T06:05:17;96052.16;;;-6.13;50.45
77871;BME280;67067;46.850;7.578;2023-01-30T06:06:18;96046.41;;;-6.17;50.18
77871;BME280;67067;46.850;7.578;2023-01-30T06:07:19;96047.34;;;-6.18;50.42
77871;BME280;67067;46.850;7.578;2023-01-30T06:08:19;96052.41;;;-6.16;50.11